sensor_id;sensor_type;location;lat;lon;timestamp;P1;durP1;ratioP1;P2;durP2;ratioP2
59938;SDS011;45801;51.810;19.444;2022-08-01T00:01:45;6.10;;;3.10;;
59938;SDS011;45801;51.810;19.444;2022-08-01T00:04:10;5.40;;;3.00;;
59938;SDS011;45801;51.810;19.444;2022-08-01T00:06:36;5.40;;;2.70;;
59938;SDS011;45801;51.810;19.444;2022-08-01T00:09:02;5.40;;;2.70;;
59938;SDS011;45801;51.810;19.444;2022-08-01T00:11:27;6.00;;;3.20;;
59938;SDS011;45801;51.810;19.444;2022-08-01T00:13:53;5.60;;;3.00;;
59938;SDS011;45801;51.810;19.444;2022-08-01T00:16:19;5.50;;;2.90;;
59938;SDS011;45801;51.810;19.444;2022-08-01T00:18:48;5.90;;;3.00;;
59938;SDS011;45801;51.810;19.444;2022-08-01T00:21:15;6.10;;;2.80;;
59938;SDS011;45801;51.810;19.444;2022-08-01T00:23:41;5.90;;;3.10;;
59938;SDS011;45801;51.810;19.444;2022-08-01T00:26:07;5.60;;;3.00;;
59938;SDS011;45801;51.810;19.444;2022-08-01T00:28:33;7.70;;;3.40;;
59938;SDS011;45801;51.810;19.444;2022-08-01T00:30:59;6.70;;;3.50;;
59938;SDS011;45801;51.810;19.444;2022-08-01T00:33:25;5.90;;;3.10;;
59938;SDS011;45801;51.810;19.444;2022-08-01T00:35:51;6.50;;;3.60;;
59938;SDS011;45801;51.810;19.444;2022-08-01T00:38:17;7.10;;;3.40;;
59938;SDS011;45801;51.810;19.444;2022-08-01T00:40:43;5.90;;;2.90;;
59938;SDS011;45801;51.810;19.444;2022-08-01T00:43:09;7.10;;;3.40;;
59938;SDS011;45801;51.810;19.444;2022-08-01T00:45:34;7.10;;;3.60;;
59938;SDS011;45801;51.810;19.444;2022-08-01T00:48:00;5.60;;;2.90;;
59938;SDS011;45801;51.810;19.444;2022-08-01T00:50:27;5.60;;;3.00;;
59938;SDS011;45801;51.810;19.444;2022-08-01T00:52:53;6.60;;;3.30;;
59938;SDS011;45801;51.810;19.444;2022-08-01T00:55:20;6.10;;;3.10;;
59938;SDS011;45801;51.810;19.444;2022-08-01T00:57:47;6.30;;;2.80;;
59938;SDS011;45801;51.810;19.444;2022-08-01T01:00:15;6.40;;;3.10;;
59938;SDS011;45801;51.810;19.444;2022-08-01T01:02:41;6.30;;;3.30;;
59938;SDS011;45801;51.810;19.444;2022-08-01T01:05:07;5.80;;;3.10;;
59938;SDS011;45801;51.810;19.444;2022-08-01T01:07:40;6.00;;;2.90;;
59938;SDS011;45801;51.810;19.444;2022-08-01T01:12:56;5.90;;;3.10;;
59938;SDS011;45801;51.810;19.444;2022-08-01T01:15:30;5.60;;;2.70;;
59938;SDS011;45801;51.810;19.444;2022-08-01T01:18:23;5.30;;;2.80;;
59938;SDS011;45801;51.810;19.444;2022-08-01T01:20:51;6.40;;;3.30;;
59938;SDS011;45801;51.810;19.444;2022-08-01T01:23:44;6.20;;;3.10;;
59938;SDS011;45801;51.810;19.444;2022-08-01T01:29:28;5.30;;;2.80;;
59938;SDS011;45801;51.810;19.444;2022-08-01T01:32:05;5.90;;;2.60;;
59938;SDS011;45801;51.810;19.444;2022-08-01T01:34:49;6.20;;;3.00;;
59938;SDS011;45801;51.810;19.444;2022-08-01T01:37:20;6.60;;;2.80;;
59938;SDS011;45801;51.810;19.444;2022-08-01T01:39:49;5.70;;;2.90;;
59938;SDS011;45801;51.810;19.444;2022-08-01T01:42:17;5.70;;;2.70;;
59938;SDS011;45801;51.810;19.444;2022-08-01T01:44:44;6.20;;;2.50;;
59938;SDS011;45801;51.810;19.444;2022-08-01T01:47:14;5.90;;;2.70;;
59938;SDS011;45801;51.810;19.444;2022-08-01T01:49:43;5.30;;;2.60;;
59938;SDS011;45801;51.810;19.444;2022-08-01T01:52:16;6.00;;;2.90;;
59938;SDS011;45801;51.810;19.444;2022-08-01T01:57:14;7.80;;;3.10;;
59938;SDS011;45801;51.810;19.444;2022-08-01T01:59:42;5.30;;;2.80;;
59938;SDS011;45801;51.810;19.444;2022-08-01T02:02:12;6.50;;;3.70;;
59938;SDS011;45801;51.810;19.444;2022-08-01T02:04:42;7.10;;;3.60;;
59938;SDS011;45801;51.810;19.444;2022-08-01T02:07:11;7.50;;;3.40;;
59938;SDS011;45801;51.810;19.444;2022-08-01T02:09:40;8.40;;;3.50;;
59938;SDS011;45801;51.810;19.444;2022-08-01T02:12:10;6.80;;;3.70;;
59938;SDS011;45801;51.810;19.444;2022-08-01T02:14:37;7.20;;;3.40;;
59938;SDS011;45801;51.810;19.444;2022-08-01T02:17:09;6.10;;;3.40;;
59938;SDS011;45801;51.810;19.444;2022-08-01T02:19:37;7.10;;;3.50;;
59938;SDS011;45801;51.810;19.444;2022-08-01T02:22:10;6.60;;;3.20;;
59938;SDS011;45801;51.810;19.444;2022-08-01T02:24:59;7.40;;;3.20;;
59938;SDS011;45801;51.810;19.444;2022-08-01T02:27:42;6.30;;;3.40;;
59938;SDS011;45801;51.810;19.444;2022-08-01T02:30:13;6.20;;;3.30;;
59938;SDS011;45801;51.810;19.444;2022-08-01T02:32:47;6.20;;;2.80;;
59938;SDS011;45801;51.810;19.444;2022-08-01T02:35:20;6.40;;;3.00;;
59938;SDS011;45801;51.810;19.444;2022-08-01T02:37:52;6.00;;;2.80;;
59938;SDS011;45801;51.810;19.444;2022-08-01T02:40:19;5.90;;;2.90;;
59938;SDS011;45801;51.810;19.444;2022-08-01T02:42:46;5.60;;;2.60;;
59938;SDS011;45801;51.810;19.444;2022-08-01T02:45:15;6.60;;;3.00;;
59938;SDS011;45801;51.810;19.444;2022-08-01T02:47:44;6.10;;;2.80;;
59938;SDS011;45801;51.810;19.444;2022-08-01T02:50:12;6.90;;;3.00;;
59938;SDS011;45801;51.810;19.444;2022-08-01T02:52:40;5.30;;;3.00;;
59938;SDS011;45801;51.810;19.444;2022-08-01T02:55:07;6.20;;;3.00;;
59938;SDS011;45801;51.810;19.444;2022-08-01T02:57:34;7.00;;;3.70;;
59938;SDS011;45801;51.810;19.444;2022-08-01T03:00:03;7.40;;;3.00;;
59938;SDS011;45801;51.810;19.444;2022-08-01T03:02:31;5.90;;;3.00;;
59938;SDS011;45801;51.810;19.444;2022-08-01T03:04:59;5.50;;;3.00;;
59938;SDS011;45801;51.810;19.444;2022-08-01T03:07:26;7.00;;;2.90;;
59938;SDS011;45801;51.810;19.444;2022-08-01T03:09:55;6.90;;;3.40;;
59938;SDS011;45801;51.810;19.444;2022-08-01T03:12:24;6.10;;;3.30;;
59938;SDS011;45801;51.810;19.444;2022-08-01T03:14:53;6.00;;;3.10;;
59938;SDS011;45801;51.810;19.444;2022-08-01T03:17:21;6.60;;;3.00;;
59938;SDS011;45801;51.810;19.444;2022-08-01T03:19:49;6.50;;;3.20;;
59938;SDS011;45801;51.810;19.444;2022-08-01T03:22:17;5.60;;;3.20;;
59938;SDS011;45801;51.810;19.444;2022-08-01T03:24:47;6.70;;;3.60;;
59938;SDS011;45801;51.810;19.444;2022-08-01T03:27:18;6.80;;;2.70;;
59938;SDS011;45801;51.810;19.444;2022-08-01T03:29:46;6.90;;;3.50;;
59938;SDS011;45801;51.810;19.444;2022-08-01T03:32:12;6.70;;;3.00;;
59938;SDS011;45801;51.810;19.444;2022-08-01T03:34:40;6.90;;;3.60;;
59938;SDS011;45801;51.810;19.444;2022-08-01T03:37:14;6.90;;;3.30;;
59938;SDS011;45801;51.810;19.444;2022-08-01T03:39:57;6.30;;;3.10;;
59938;SDS011;45801;51.810;19.444;2022-08-01T03:42:32;6.30;;;3.10;;
59938;SDS011;45801;51.810;19.444;2022-08-01T03:45:03;6.30;;;3.30;;
59938;SDS011;45801;51.810;19.444;2022-08-01T03:50:01;5.30;;;2.90;;
59938;SDS011;45801;51.810;19.444;2022-08-01T03:52:29;6.30;;;3.10;;
59938;SDS011;45801;51.810;19.444;2022-08-01T03:54:58;6.50;;;3.20;;
59938;SDS011;45801;51.810;19.444;2022-08-01T03:57:28;6.00;;;3.10;;
59938;SDS011;45801;51.810;19.444;2022-08-01T03:59:56;5.50;;;2.70;;
59938;SDS011;45801;51.810;19.444;2022-08-01T04:02:25;6.30;;;3.20;;
59938;SDS011;45801;51.810;19.444;2022-08-01T04:04:52;6.60;;;3.10;;
59938;SDS011;45801;51.810;19.444;2022-08-01T04:07:25;6.30;;;3.10;;
59938;SDS011;45801;51.810;19.444;2022-08-01T04:09:52;6.50;;;3.10;;
59938;SDS011;45801;51.810;19.444;2022-08-01T04:12:18;6.20;;;2.90;;
59938;SDS011;45801;51.810;19.444;2022-08-01T04:14:44;5.50;;;2.80;;
59938;SDS011;45801;51.810;19.444;2022-08-01T04:17:10;5.80;;;2.80;;
59938;SDS011;45801;51.810;19.444;2022-08-01T04:19:36;5.90;;;2.90;;
59938;SDS011;45801;51.810;19.444;2022-08-01T04:22:01;6.20;;;3.20;;
59938;SDS011;45801;51.810;19.444;2022-08-01T04:24:28;5.60;;;3.00;;
59938;SDS011;45801;51.810;19.444;2022-08-01T04:26:56;6.50;;;3.40;;
59938;SDS011;45801;51.810;19.444;2022-08-01T04:29:25;6.20;;;3.20;;
59938;SDS011;45801;51.810;19.444;2022-08-01T04:31:54;6.50;;;3.50;;
59938;SDS011;45801;51.810;19.444;2022-08-01T04:34:22;6.80;;;2.90;;
59938;SDS011;45801;51.810;19.444;2022-08-01T04:36:52;5.80;;;3.10;;
59938;SDS011;45801;51.810;19.444;2022-08-01T04:39:19;6.40;;;3.00;;
59938;SDS011;45801;51.810;19.444;2022-08-01T04:41:47;6.00;;;3.10;;
59938;SDS011;45801;51.810;19.444;2022-08-01T04:44:14;6.80;;;3.30;;
59938;SDS011;45801;51.810;19.444;2022-08-01T04:46:40;5.80;;;3.30;;
59938;SDS011;45801;51.810;19.444;2022-08-01T04:49:07;5.80;;;3.20;;
59938;SDS011;45801;51.810;19.444;2022-08-01T04:51:34;7.60;;;3.70;;
59938;SDS011;45801;51.810;19.444;2022-08-01T04:54:00;6.30;;;3.50;;
59938;SDS011;45801;51.810;19.444;2022-08-01T04:56:26;6.00;;;3.10;;
59938;SDS011;45801;51.810;19.444;2022-08-01T04:58:52;7.60;;;4.50;;
59938;SDS011;45801;51.810;19.444;2022-08-01T05:01:38;6.90;;;3.70;;
59938;SDS011;45801;51.810;19.444;2022-08-01T05:04:03;7.60;;;3.70;;
59938;SDS011;45801;51.810;19.444;2022-08-01T05:06:29;6.30;;;3.50;;
59938;SDS011;45801;51.810;19.444;2022-08-01T05:08:55;6.50;;;4.10;;
59938;SDS011;45801;51.810;19.444;2022-08-01T05:11:21;6.80;;;3.90;;
59938;SDS011;45801;51.810;19.444;2022-08-01T05:13:47;7.10;;;4.40;;
59938;SDS011;45801;51.810;19.444;2022-08-01T05:16:13;7.80;;;4.70;;
59938;SDS011;45801;51.810;19.444;2022-08-01T05:18:39;7.20;;;4.40;;
59938;SDS011;45801;51.810;19.444;2022-08-01T05:21:05;8.20;;;4.40;;
59938;SDS011;45801;51.810;19.444;2022-08-01T05:23:30;8.20;;;4.10;;
59938;SDS011;45801;51.810;19.444;2022-08-01T05:25:56;9.40;;;4.60;;
59938;SDS011;45801;51.810;19.444;2022-08-01T05:28:22;8.00;;;4.80;;
59938;SDS011;45801;51.810;19.444;2022-08-01T05:30:47;7.60;;;4.60;;
59938;SDS011;45801;51.810;19.444;2022-08-01T05:33:13;8.20;;;5.00;;
59938;SDS011;45801;51.810;19.444;2022-08-01T05:35:39;9.70;;;4.60;;
59938;SDS011;45801;51.810;19.444;2022-08-01T05:38:04;7.70;;;4.30;;
59938;SDS011;45801;51.810;19.444;2022-08-01T05:40:30;9.70;;;4.60;;
59938;SDS011;45801;51.810;19.444;2022-08-01T05:42:56;8.80;;;4.30;;
59938;SDS011;45801;51.810;19.444;2022-08-01T05:45:21;9.40;;;4.20;;
59938;SDS011;45801;51.810;19.444;2022-08-01T05:47:47;9.00;;;5.10;;
59938;SDS011;45801;51.810;19.444;2022-08-01T05:50:12;7.70;;;4.70;;
59938;SDS011;45801;51.810;19.444;2022-08-01T05:52:38;9.30;;;4.00;;
59938;SDS011;45801;51.810;19.444;2022-08-01T05:55:04;6.10;;;3.10;;
59938;SDS011;45801;51.810;19.444;2022-08-01T05:57:30;6.40;;;2.60;;
59938;SDS011;45801;51.810;19.444;2022-08-01T05:59:56;7.60;;;3.00;;
59938;SDS011;45801;51.810;19.444;2022-08-01T06:02:22;7.90;;;3.30;;
59938;SDS011;45801;51.810;19.444;2022-08-01T06:04:47;6.50;;;2.90;;
59938;SDS011;45801;51.810;19.444;2022-08-01T06:07:13;7.80;;;3.50;;
59938;SDS011;45801;51.810;19.444;2022-08-01T06:09:39;7.20;;;3.70;;
59938;SDS011;45801;51.810;19.444;2022-08-01T06:12:04;10.00;;;3.40;;
59938;SDS011;45801;51.810;19.444;2022-08-01T06:14:30;6.20;;;2.80;;
59938;SDS011;45801;51.810;19.444;2022-08-01T06:16:56;5.70;;;2.80;;
59938;SDS011;45801;51.810;19.444;2022-08-01T06:19:22;7.40;;;3.10;;
59938;SDS011;45801;51.810;19.444;2022-08-01T06:21:47;7.90;;;3.00;;
59938;SDS011;45801;51.810;19.444;2022-08-01T06:24:13;8.30;;;3.10;;
59938;SDS011;45801;51.810;19.444;2022-08-01T06:26:39;6.80;;;2.30;;
59938;SDS011;45801;51.810;19.444;2022-08-01T06:29:05;7.60;;;2.90;;
59938;SDS011;45801;51.810;19.444;2022-08-01T06:31:30;7.30;;;2.70;;
59938;SDS011;45801;51.810;19.444;2022-08-01T06:33:56;6.30;;;2.40;;
59938;SDS011;45801;51.810;19.444;2022-08-01T06:36:22;7.10;;;2.70;;
59938;SDS011;45801;51.810;19.444;2022-08-01T06:38:48;8.20;;;3.00;;
59938;SDS011;45801;51.810;19.444;2022-08-01T06:41:14;6.20;;;3.10;;
59938;SDS011;45801;51.810;19.444;2022-08-01T06:43:39;7.40;;;2.80;;
59938;SDS011;45801;51.810;19.444;2022-08-01T06:46:05;7.90;;;2.70;;
59938;SDS011;45801;51.810;19.444;2022-08-01T06:48:31;6.40;;;2.90;;
59938;SDS011;45801;51.810;19.444;2022-08-01T06:50:56;6.10;;;2.80;;
59938;SDS011;45801;51.810;19.444;2022-08-01T06:53:35;6.20;;;2.70;;
59938;SDS011;45801;51.810;19.444;2022-08-01T06:56:02;7.30;;;2.90;;
59938;SDS011;45801;51.810;19.444;2022-08-01T06:58:28;7.40;;;2.80;;
59938;SDS011;45801;51.810;19.444;2022-08-01T07:00:54;6.60;;;2.80;;
59938;SDS011;45801;51.810;19.444;2022-08-01T07:03:20;6.20;;;2.90;;
59938;SDS011;45801;51.810;19.444;2022-08-01T07:05:45;6.00;;;2.90;;
59938;SDS011;45801;51.810;19.444;2022-08-01T07:08:11;8.10;;;3.40;;
59938;SDS011;45801;51.810;19.444;2022-08-01T07:10:36;7.30;;;3.70;;
59938;SDS011;45801;51.810;19.444;2022-08-01T07:13:02;7.40;;;3.80;;
59938;SDS011;45801;51.810;19.444;2022-08-01T07:15:28;8.20;;;3.60;;
59938;SDS011;45801;51.810;19.444;2022-08-01T07:17:53;5.80;;;3.00;;
59938;SDS011;45801;51.810;19.444;2022-08-01T07:20:19;8.00;;;3.60;;
59938;SDS011;45801;51.810;19.444;2022-08-01T07:22:45;7.50;;;3.80;;
59938;SDS011;45801;51.810;19.444;2022-08-01T07:25:11;6.80;;;3.20;;
59938;SDS011;45801;51.810;19.444;2022-08-01T07:27:36;7.10;;;3.80;;
59938;SDS011;45801;51.810;19.444;2022-08-01T07:30:03;9.00;;;3.80;;
59938;SDS011;45801;51.810;19.444;2022-08-01T07:32:30;7.70;;;3.90;;
59938;SDS011;45801;51.810;19.444;2022-08-01T07:34:56;6.50;;;3.60;;
59938;SDS011;45801;51.810;19.444;2022-08-01T07:37:22;9.00;;;3.50;;
59938;SDS011;45801;51.810;19.444;2022-08-01T07:39:49;7.40;;;3.30;;
59938;SDS011;45801;51.810;19.444;2022-08-01T07:42:15;7.60;;;3.80;;
59938;SDS011;45801;51.810;19.444;2022-08-01T07:44:42;8.70;;;3.90;;
59938;SDS011;45801;51.810;19.444;2022-08-01T07:47:07;8.30;;;3.50;;
59938;SDS011;45801;51.810;19.444;2022-08-01T07:49:33;6.60;;;3.20;;
59938;SDS011;45801;51.810;19.444;2022-08-01T07:52:00;7.20;;;3.60;;
59938;SDS011;45801;51.810;19.444;2022-08-01T07:54:30;7.40;;;3.70;;
59938;SDS011;45801;51.810;19.444;2022-08-01T07:56:59;8.00;;;3.70;;
59938;SDS011;45801;51.810;19.444;2022-08-01T07:59:24;7.50;;;3.50;;
59938;SDS011;45801;51.810;19.444;2022-08-01T08:01:50;6.70;;;3.20;;
59938;SDS011;45801;51.810;19.444;2022-08-01T08:04:16;6.80;;;3.30;;
59938;SDS011;45801;51.810;19.444;2022-08-01T08:06:43;7.10;;;3.50;;
59938;SDS011;45801;51.810;19.444;2022-08-01T08:09:10;7.20;;;2.80;;
59938;SDS011;45801;51.810;19.444;2022-08-01T08:11:36;7.70;;;3.10;;
59938;SDS011;45801;51.810;19.444;2022-08-01T08:14:02;7.00;;;3.40;;
59938;SDS011;45801;51.810;19.444;2022-08-01T08:16:27;6.60;;;3.50;;
59938;SDS011;45801;51.810;19.444;2022-08-01T08:18:53;5.70;;;3.10;;
59938;SDS011;45801;51.810;19.444;2022-08-01T08:21:19;7.60;;;3.40;;
59938;SDS011;45801;51.810;19.444;2022-08-01T08:23:45;7.90;;;3.60;;
59938;SDS011;45801;51.810;19.444;2022-08-01T08:26:29;9.20;;;4.00;;
59938;SDS011;45801;51.810;19.444;2022-08-01T08:28:55;6.50;;;3.60;;
59938;SDS011;45801;51.810;19.444;2022-08-01T08:31:22;6.40;;;3.20;;
59938;SDS011;45801;51.810;19.444;2022-08-01T08:33:48;6.60;;;3.30;;
59938;SDS011;45801;51.810;19.444;2022-08-01T08:36:13;7.10;;;3.20;;
59938;SDS011;45801;51.810;19.444;2022-08-01T08:38:40;7.80;;;2.70;;
59938;SDS011;45801;51.810;19.444;2022-08-01T08:41:06;8.10;;;3.50;;
59938;SDS011;45801;51.810;19.444;2022-08-01T08:43:32;5.60;;;2.50;;
59938;SDS011;45801;51.810;19.444;2022-08-01T08:45:57;6.40;;;2.60;;
59938;SDS011;45801;51.810;19.444;2022-08-01T08:48:24;6.00;;;2.70;;
59938;SDS011;45801;51.810;19.444;2022-08-01T08:50:50;5.60;;;2.50;;
59938;SDS011;45801;51.810;19.444;2022-08-01T08:53:16;5.60;;;2.40;;
59938;SDS011;45801;51.810;19.444;2022-08-01T08:55:44;5.40;;;2.10;;
59938;SDS011;45801;51.810;19.444;2022-08-01T08:58:11;5.80;;;2.20;;
59938;SDS011;45801;51.810;19.444;2022-08-01T09:00:41;4.90;;;2.00;;
59938;SDS011;45801;51.810;19.444;2022-08-01T09:03:07;5.50;;;2.10;;
59938;SDS011;45801;51.810;19.444;2022-08-01T09:05:33;4.30;;;1.90;;
59938;SDS011;45801;51.810;19.444;2022-08-01T09:07:59;4.10;;;1.60;;
59938;SDS011;45801;51.810;19.444;2022-08-01T09:10:25;4.40;;;1.90;;
59938;SDS011;45801;51.810;19.444;2022-08-01T09:13:11;6.10;;;2.10;;
59938;SDS011;45801;51.810;19.444;2022-08-01T09:15:45;6.90;;;2.70;;
59938;SDS011;45801;51.810;19.444;2022-08-01T09:18:45;6.90;;;2.50;;
59938;SDS011;45801;51.810;19.444;2022-08-01T09:26:05;5.30;;;2.30;;
59938;SDS011;45801;51.810;19.444;2022-08-01T09:28:32;5.00;;;2.10;;
59938;SDS011;45801;51.810;19.444;2022-08-01T09:30:58;5.30;;;2.10;;
59938;SDS011;45801;51.810;19.444;2022-08-01T09:39:23;9.00;;;3.40;;
59938;SDS011;45801;51.810;19.444;2022-08-01T09:41:53;5.50;;;2.40;;
59938;SDS011;45801;51.810;19.444;2022-08-01T09:44:36;6.80;;;2.60;;
59938;SDS011;45801;51.810;19.444;2022-08-01T09:47:03;5.60;;;2.30;;
59938;SDS011;45801;51.810;19.444;2022-08-01T09:49:30;4.50;;;2.20;;
59938;SDS011;45801;51.810;19.444;2022-08-01T09:52:09;6.70;;;2.20;;
59938;SDS011;45801;51.810;19.444;2022-08-01T09:54:38;5.00;;;2.20;;
59938;SDS011;45801;51.810;19.444;2022-08-01T09:57:11;4.70;;;1.80;;
59938;SDS011;45801;51.810;19.444;2022-08-01T09:59:44;4.50;;;1.80;;
59938;SDS011;45801;51.810;19.444;2022-08-01T10:02:12;4.90;;;1.70;;
59938;SDS011;45801;51.810;19.444;2022-08-01T10:04:47;4.90;;;1.70;;
59938;SDS011;45801;51.810;19.444;2022-08-01T10:07:14;5.80;;;2.00;;
59938;SDS011;45801;51.810;19.444;2022-08-01T10:09:41;4.40;;;1.80;;
59938;SDS011;45801;51.810;19.444;2022-08-01T10:12:09;6.30;;;2.30;;
59938;SDS011;45801;51.810;19.444;2022-08-01T10:14:36;5.30;;;1.80;;
59938;SDS011;45801;51.810;19.444;2022-08-01T10:17:03;6.00;;;1.80;;
59938;SDS011;45801;51.810;19.444;2022-08-01T10:19:32;4.70;;;2.00;;
59938;SDS011;45801;51.810;19.444;2022-08-01T10:22:00;4.70;;;2.00;;
59938;SDS011;45801;51.810;19.444;2022-08-01T10:24:28;5.10;;;1.90;;
59938;SDS011;45801;51.810;19.444;2022-08-01T10:26:56;3.70;;;1.60;;
59938;SDS011;45801;51.810;19.444;2022-08-01T10:29:28;6.60;;;1.90;;
59938;SDS011;45801;51.810;19.444;2022-08-01T10:32:00;5.00;;;2.00;;
59938;SDS011;45801;51.810;19.444;2022-08-01T10:34:26;6.00;;;2.20;;
59938;SDS011;45801;51.810;19.444;2022-08-01T10:36:53;4.60;;;2.00;;
59938;SDS011;45801;51.810;19.444;2022-08-01T10:39:19;4.80;;;2.10;;
59938;SDS011;45801;51.810;19.444;2022-08-01T10:41:46;5.60;;;2.10;;
59938;SDS011;45801;51.810;19.444;2022-08-01T10:44:11;8.30;;;2.50;;
59938;SDS011;45801;51.810;19.444;2022-08-01T10:46:38;6.40;;;2.30;;
59938;SDS011;45801;51.810;19.444;2022-08-01T10:49:11;5.40;;;2.00;;
59938;SDS011;45801;51.810;19.444;2022-08-01T10:51:40;4.60;;;1.90;;
59938;SDS011;45801;51.810;19.444;2022-08-01T10:54:08;5.40;;;2.20;;
59938;SDS011;45801;51.810;19.444;2022-08-01T10:56:40;4.90;;;2.20;;
59938;SDS011;45801;51.810;19.444;2022-08-01T10:59:09;6.20;;;2.10;;
59938;SDS011;45801;51.810;19.444;2022-08-01T11:02:07;5.80;;;2.80;;
59938;SDS011;45801;51.810;19.444;2022-08-01T11:04:44;4.40;;;2.00;;
59938;SDS011;45801;51.810;19.444;2022-08-01T11:13:04;8.50;;;2.60;;
59938;SDS011;45801;51.810;19.444;2022-08-01T11:15:33;6.00;;;2.30;;
59938;SDS011;45801;51.810;19.444;2022-08-01T11:18:00;5.30;;;2.40;;
59938;SDS011;45801;51.810;19.444;2022-08-01T11:20:31;5.60;;;2.70;;
59938;SDS011;45801;51.810;19.444;2022-08-01T11:26:05;7.70;;;2.90;;
59938;SDS011;45801;51.810;19.444;2022-08-01T11:30:40;6.10;;;2.50;;
59938;SDS011;45801;51.810;19.444;2022-08-01T11:33:06;7.50;;;2.70;;
59938;SDS011;45801;51.810;19.444;2022-08-01T11:35:32;6.10;;;2.60;;
59938;SDS011;45801;51.810;19.444;2022-08-01T11:41:08;4.70;;;2.40;;
59938;SDS011;45801;51.810;19.444;2022-08-01T11:52:07;8.90;;;2.80;;
59938;SDS011;45801;51.810;19.444;2022-08-01T11:54:34;5.60;;;2.60;;
59938;SDS011;45801;51.810;19.444;2022-08-01T11:57:04;5.90;;;3.00;;
59938;SDS011;45801;51.810;19.444;2022-08-01T12:02:19;7.40;;;2.90;;
59938;SDS011;45801;51.810;19.444;2022-08-01T12:07:31;7.80;;;3.30;;
59938;SDS011;45801;51.810;19.444;2022-08-01T12:12:30;6.50;;;2.50;;
59938;SDS011;45801;51.810;19.444;2022-08-01T12:14:58;6.40;;;2.90;;
59938;SDS011;45801;51.810;19.444;2022-08-01T12:17:32;5.90;;;2.90;;
59938;SDS011;45801;51.810;19.444;2022-08-01T12:20:03;8.00;;;2.90;;
59938;SDS011;45801;51.810;19.444;2022-08-01T12:22:30;5.10;;;3.00;;
59938;SDS011;45801;51.810;19.444;2022-08-01T12:24:56;7.00;;;3.00;;
59938;SDS011;45801;51.810;19.444;2022-08-01T12:27:34;7.70;;;3.20;;
59938;SDS011;45801;51.810;19.444;2022-08-01T12:30:03;7.30;;;3.30;;
59938;SDS011;45801;51.810;19.444;2022-08-01T12:32:32;8.60;;;3.30;;
59938;SDS011;45801;51.810;19.444;2022-08-01T12:35:03;7.40;;;3.30;;
59938;SDS011;45801;51.810;19.444;2022-08-01T12:37:35;7.40;;;3.30;;
59938;SDS011;45801;51.810;19.444;2022-08-01T12:40:11;7.70;;;3.40;;
59938;SDS011;45801;51.810;19.444;2022-08-01T12:42:38;6.80;;;3.70;;
59938;SDS011;45801;51.810;19.444;2022-08-01T12:45:05;6.20;;;3.00;;
59938;SDS011;45801;51.810;19.444;2022-08-01T12:47:36;6.90;;;2.90;;
59938;SDS011;45801;51.810;19.444;2022-08-01T12:50:07;6.90;;;3.00;;
59938;SDS011;45801;51.810;19.444;2022-08-01T12:52:37;5.70;;;3.00;;
59938;SDS011;45801;51.810;19.444;2022-08-01T12:55:14;7.50;;;3.20;;
59938;SDS011;45801;51.810;19.444;2022-08-01T12:57:45;5.90;;;3.20;;
59938;SDS011;45801;51.810;19.444;2022-08-01T13:00:17;8.40;;;3.70;;
59938;SDS011;45801;51.810;19.444;2022-08-01T13:02:44;7.10;;;3.20;;
59938;SDS011;45801;51.810;19.444;2022-08-01T13:05:12;8.20;;;3.20;;
59938;SDS011;45801;51.810;19.444;2022-08-01T13:07:47;7.70;;;3.10;;
59938;SDS011;45801;51.810;19.444;2022-08-01T13:10:15;6.30;;;3.00;;
59938;SDS011;45801;51.810;19.444;2022-08-01T13:12:55;7.60;;;3.10;;
59938;SDS011;45801;51.810;19.444;2022-08-01T13:15:30;6.40;;;3.10;;
59938;SDS011;45801;51.810;19.444;2022-08-01T13:17:58;6.20;;;2.90;;
59938;SDS011;45801;51.810;19.444;2022-08-01T13:20:27;6.60;;;2.80;;
59938;SDS011;45801;51.810;19.444;2022-08-01T13:23:09;6.40;;;3.50;;
59938;SDS011;45801;51.810;19.444;2022-08-01T13:25:46;6.60;;;3.60;;
59938;SDS011;45801;51.810;19.444;2022-08-01T13:28:20;6.40;;;3.30;;
59938;SDS011;45801;51.810;19.444;2022-08-01T13:30:56;5.80;;;3.10;;
59938;SDS011;45801;51.810;19.444;2022-08-01T13:33:26;7.90;;;3.10;;
59938;SDS011;45801;51.810;19.444;2022-08-01T13:35:54;6.80;;;3.20;;
59938;SDS011;45801;51.810;19.444;2022-08-01T13:38:21;6.50;;;3.00;;
59938;SDS011;45801;51.810;19.444;2022-08-01T13:41:06;6.30;;;3.30;;
59938;SDS011;45801;51.810;19.444;2022-08-01T13:43:32;6.40;;;3.20;;
59938;SDS011;45801;51.810;19.444;2022-08-01T13:46:00;7.60;;;3.70;;
59938;SDS011;45801;51.810;19.444;2022-08-01T13:48:29;6.10;;;3.10;;
59938;SDS011;45801;51.810;19.444;2022-08-01T13:50:56;6.40;;;3.00;;
59938;SDS011;45801;51.810;19.444;2022-08-01T13:53:21;9.00;;;3.50;;
59938;SDS011;45801;51.810;19.444;2022-08-01T13:55:47;6.50;;;3.50;;
59938;SDS011;45801;51.810;19.444;2022-08-01T13:58:13;6.30;;;3.30;;
59938;SDS011;45801;51.810;19.444;2022-08-01T14:00:38;6.20;;;3.10;;
59938;SDS011;45801;51.810;19.444;2022-08-01T14:03:04;6.20;;;2.90;;
59938;SDS011;45801;51.810;19.444;2022-08-01T14:05:30;7.20;;;3.00;;
59938;SDS011;45801;51.810;19.444;2022-08-01T14:07:56;6.50;;;3.10;;
59938;SDS011;45801;51.810;19.444;2022-08-01T14:10:23;7.80;;;3.50;;
59938;SDS011;45801;51.810;19.444;2022-08-01T14:12:49;7.10;;;3.20;;
59938;SDS011;45801;51.810;19.444;2022-08-01T14:15:15;6.60;;;3.70;;
59938;SDS011;45801;51.810;19.444;2022-08-01T14:17:41;6.10;;;3.10;;
59938;SDS011;45801;51.810;19.444;2022-08-01T14:20:07;7.70;;;3.70;;
59938;SDS011;45801;51.810;19.444;2022-08-01T14:22:33;7.50;;;3.80;;
59938;SDS011;45801;51.810;19.444;2022-08-01T14:24:59;6.30;;;3.70;;
59938;SDS011;45801;51.810;19.444;2022-08-01T14:27:25;9.80;;;3.70;;
59938;SDS011;45801;51.810;19.444;2022-08-01T14:29:51;7.50;;;3.60;;
59938;SDS011;45801;51.810;19.444;2022-08-01T14:32:16;6.70;;;3.40;;
59938;SDS011;45801;51.810;19.444;2022-08-01T14:34:42;7.90;;;3.60;;
59938;SDS011;45801;51.810;19.444;2022-08-01T14:37:08;5.90;;;3.40;;
59938;SDS011;45801;51.810;19.444;2022-08-01T14:39:33;7.10;;;3.50;;
59938;SDS011;45801;51.810;19.444;2022-08-01T14:41:59;8.70;;;4.20;;
59938;SDS011;45801;51.810;19.444;2022-08-01T14:44:25;5.90;;;3.20;;
59938;SDS011;45801;51.810;19.444;2022-08-01T14:46:50;7.40;;;3.60;;
59938;SDS011;45801;51.810;19.444;2022-08-01T14:49:16;8.10;;;3.50;;
59938;SDS011;45801;51.810;19.444;2022-08-01T14:51:42;7.80;;;3.70;;
59938;SDS011;45801;51.810;19.444;2022-08-01T14:54:07;6.90;;;3.40;;
59938;SDS011;45801;51.810;19.444;2022-08-01T14:56:33;7.40;;;3.10;;
59938;SDS011;45801;51.810;19.444;2022-08-01T14:58:59;7.40;;;3.60;;
59938;SDS011;45801;51.810;19.444;2022-08-01T15:01:25;8.40;;;3.30;;
59938;SDS011;45801;51.810;19.444;2022-08-01T15:03:51;8.60;;;4.30;;
59938;SDS011;45801;51.810;19.444;2022-08-01T15:06:17;8.20;;;3.70;;
59938;SDS011;45801;51.810;19.444;2022-08-01T15:08:43;6.30;;;3.70;;
59938;SDS011;45801;51.810;19.444;2022-08-01T15:11:09;10.10;;;3.70;;
59938;SDS011;45801;51.810;19.444;2022-08-01T15:13:35;7.80;;;4.20;;
59938;SDS011;45801;51.810;19.444;2022-08-01T15:16:01;9.30;;;4.20;;
59938;SDS011;45801;51.810;19.444;2022-08-01T15:18:27;9.30;;;4.60;;
59938;SDS011;45801;51.810;19.444;2022-08-01T15:20:53;8.90;;;4.40;;
59938;SDS011;45801;51.810;19.444;2022-08-01T15:23:20;8.70;;;4.60;;
59938;SDS011;45801;51.810;19.444;2022-08-01T15:25:47;8.40;;;4.70;;
59938;SDS011;45801;51.810;19.444;2022-08-01T15:28:13;10.80;;;4.40;;
59938;SDS011;45801;51.810;19.444;2022-08-01T15:30:38;8.40;;;4.40;;
59938;SDS011;45801;51.810;19.444;2022-08-01T15:33:04;8.50;;;4.40;;